CheckWX is a tool to help pilots better visualize weather data.  It is not intended as a substitute for an official pre-flight weather briefing.

07:00:10 UTC

KNTD METAR
Point Mugu NAS (Naval Base Ventura Co) Airport
Oxnard, California, USA
Current

3 mins ago

KNTD 210657Z 06003KT 10SM CLR 16/14 A2985 RMK AO2 SLP110 T01610139 CHINO N VISNO N $
Observed
Sep-21 @ 06:57 UTC
Wind
  • 060° at 3 KTS
Visibility
10 SM
Flight Rules
VFR
Cloud Levels
  • Clear skies
Temperature
16°C / 61°F
Dewpoint
14°C / 57°F
Humidity
88%
Altimeter
29.85" Hg
Pressure
1010.82 hPa
Previous

1 hour ago

KNTD 210557Z 00000KT 10SM CLR 17/15 A2986 RMK AO2 SLP113 T01670150 10222 20167 51009 CHINO N VISNO N $
Observed
Sep-21 @ 05:57 UTC
Visibility
10 SM
Flight Rules
VFR
Cloud Levels
  • Clear skies
Temperature
17°C / 63°F
Dewpoint
15°C / 59°F
Humidity
88%
Altimeter
29.86" Hg
Pressure
1011.22 hPa
Previous

2 hours ago

KNTD 210457Z 36003KT 10SM CLR 17/16 A2985 RMK AO2 SLP110 T01720156 CHINO N VISNO N $
Observed
Sep-21 @ 04:57 UTC
Wind
  • 360° at 3 KTS
Visibility
10 SM
Flight Rules
VFR
Cloud Levels
  • Clear skies
Temperature
17°C / 63°F
Dewpoint
16°C / 61°F
Humidity
94%
Altimeter
29.85" Hg
Pressure
1010.82 hPa